sensor_id;sensor_type;location;lat;lon;timestamp;temperature;humidity
21261;DHT22;10788;47.930;9.766;2023-03-23T00:01:08;9.60;99.90
21261;DHT22;10788;47.930;9.766;2023-03-23T00:03:39;9.60;99.90
21261;DHT22;10788;47.930;9.766;2023-03-23T00:06:05;9.70;99.90
21261;DHT22;10788;47.930;9.766;2023-03-23T00:08:38;9.70;99.90
21261;DHT22;10788;47.930;9.766;2023-03-23T00:11:12;9.70;99.90
21261;DHT22;10788;47.930;9.766;2023-03-23T00:13:40;9.80;99.90
21261;DHT22;10788;47.930;9.766;2023-03-23T00:16:06;9.90;99.90
21261;DHT22;10788;47.930;9.766;2023-03-23T00:21:09;9.90;99.90
21261;DHT22;10788;47.930;9.766;2023-03-23T00:23:35;9.90;99.90
21261;DHT22;10788;47.930;9.766;2023-03-23T00:26:00;10.00;99.90
21261;DHT22;10788;47.930;9.766;2023-03-23T00:28:27;9.90;99.90
21261;DHT22;10788;47.930;9.766;2023-03-23T00:31:00;9.90;99.90
21261;DHT22;10788;47.930;9.766;2023-03-23T00:33:27;9.90;99.90
21261;DHT22;10788;47.930;9.766;2023-03-23T00:35:55;9.80;99.90
21261;DHT22;10788;47.930;9.766;2023-03-23T00:38:24;9.80;99.90
21261;DHT22;10788;47.930;9.766;2023-03-23T00:40:50;9.80;99.90
21261;DHT22;10788;47.930;9.766;2023-03-23T00:43:17;9.70;99.90
21261;DHT22;10788;47.930;9.766;2023-03-23T00:45:44;9.70;99.90
21261;DHT22;10788;47.930;9.766;2023-03-23T00:48:15;9.60;99.90
21261;DHT22;10788;47.930;9.766;2023-03-23T00:50:40;9.50;99.90
21261;DHT22;10788;47.930;9.766;2023-03-23T00:53:06;9.30;99.90
21261;DHT22;10788;47.930;9.766;2023-03-23T00:55:35;9.10;99.90
21261;DHT22;10788;47.930;9.766;2023-03-23T00:58:01;8.90;99.90
21261;DHT22;10788;47.930;9.766;2023-03-23T01:00:26;9.00;99.90
21261;DHT22;10788;47.930;9.766;2023-03-23T01:02:55;8.80;99.90
21261;DHT22;10788;47.930;9.766;2023-03-23T01:05:21;8.90;99.90
21261;DHT22;10788;47.930;9.766;2023-03-23T01:07:47;8.80;99.90
21261;DHT22;10788;47.930;9.766;2023-03-23T01:10:14;8.80;99.90
21261;DHT22;10788;47.930;9.766;2023-03-23T01:12:44;8.80;99.90
21261;DHT22;10788;47.930;9.766;2023-03-23T01:15:15;8.80;99.90
21261;DHT22;10788;47.930;9.766;2023-03-23T01:17:42;8.80;99.90
21261;DHT22;10788;47.930;9.766;2023-03-23T01:20:08;8.80;99.90
21261;DHT22;10788;47.930;9.766;2023-03-23T01:22:35;8.80;99.90
21261;DHT22;10788;47.930;9.766;2023-03-23T01:25:00;8.80;99.90
21261;DHT22;10788;47.930;9.766;2023-03-23T01:27:26;8.80;99.90
21261;DHT22;10788;47.930;9.766;2023-03-23T01:29:52;8.80;99.90
21261;DHT22;10788;47.930;9.766;2023-03-23T01:32:17;8.80;99.90
21261;DHT22;10788;47.930;9.766;2023-03-23T01:34:43;8.80;99.90
21261;DHT22;10788;47.930;9.766;2023-03-23T01:37:08;8.80;99.90
21261;DHT22;10788;47.930;9.766;2023-03-23T01:39:36;8.90;99.90
21261;DHT22;10788;47.930;9.766;2023-03-23T01:42:02;8.80;99.90
21261;DHT22;10788;47.930;9.766;2023-03-23T01:46:57;8.90;99.90
21261;DHT22;10788;47.930;9.766;2023-03-23T01:49:40;8.90;99.90
21261;DHT22;10788;47.930;9.766;2023-03-23T01:52:18;8.90;99.90
21261;DHT22;10788;47.930;9.766;2023-03-23T01:54:47;8.90;99.90
21261;DHT22;10788;47.930;9.766;2023-03-23T01:57:16;8.90;99.90
21261;DHT22;10788;47.930;9.766;2023-03-23T01:59:43;8.90;99.90
21261;DHT22;10788;47.930;9.766;2023-03-23T02:02:11;8.90;99.90
21261;DHT22;10788;47.930;9.766;2023-03-23T02:04:38;8.90;99.90
21261;DHT22;10788;47.930;9.766;2023-03-23T02:07:05;8.90;99.90
21261;DHT22;10788;47.930;9.766;2023-03-23T02:09:31;8.90;99.90
21261;DHT22;10788;47.930;9.766;2023-03-23T02:11:57;8.90;99.90
21261;DHT22;10788;47.930;9.766;2023-03-23T02:14:24;8.90;99.90
21261;DHT22;10788;47.930;9.766;2023-03-23T02:23:02;8.90;99.90
21261;DHT22;10788;47.930;9.766;2023-03-23T02:31:33;8.90;99.90
21261;DHT22;10788;47.930;9.766;2023-03-23T02:34:20;8.90;99.90
21261;DHT22;10788;47.930;9.766;2023-03-23T02:39:26;8.90;99.90
21261;DHT22;10788;47.930;9.766;2023-03-23T02:42:00;9.00;99.90
21261;DHT22;10788;47.930;9.766;2023-03-23T02:44:29;8.90;99.90
21261;DHT22;10788;47.930;9.766;2023-03-23T02:46:57;9.00;99.90
21261;DHT22;10788;47.930;9.766;2023-03-23T02:49:24;9.00;99.90
21261;DHT22;10788;47.930;9.766;2023-03-23T02:51:51;9.00;99.90
21261;DHT22;10788;47.930;9.766;2023-03-23T02:54:18;9.00;99.90
21261;DHT22;10788;47.930;9.766;2023-03-23T02:56:45;9.00;99.90
21261;DHT22;10788;47.930;9.766;2023-03-23T02:59:12;9.00;99.90
21261;DHT22;10788;47.930;9.766;2023-03-23T03:04:11;9.10;99.90
21261;DHT22;10788;47.930;9.766;2023-03-23T03:06:54;9.10;99.90
21261;DHT22;10788;47.930;9.766;2023-03-23T03:12:06;9.10;99.90
21261;DHT22;10788;47.930;9.766;2023-03-23T03:14:44;9.20;99.90
21261;DHT22;10788;47.930;9.766;2023-03-23T03:17:20;9.20;99.90
21261;DHT22;10788;47.930;9.766;2023-03-23T03:19:52;9.20;99.90
21261;DHT22;10788;47.930;9.766;2023-03-23T03:22:21;9.20;99.90
21261;DHT22;10788;47.930;9.766;2023-03-23T03:24:48;9.30;99.90
21261;DHT22;10788;47.930;9.766;2023-03-23T03:27:18;9.30;99.90
21261;DHT22;10788;47.930;9.766;2023-03-23T03:29:47;9.30;99.90
21261;DHT22;10788;47.930;9.766;2023-03-23T03:32:19;9.30;99.90
21261;DHT22;10788;47.930;9.766;2023-03-23T03:34:46;9.30;99.90
21261;DHT22;10788;47.930;9.766;2023-03-23T03:37:13;9.40;99.90
21261;DHT22;10788;47.930;9.766;2023-03-23T03:39:40;9.40;99.90
21261;DHT22;10788;47.930;9.766;2023-03-23T03:42:06;9.40;99.90
21261;DHT22;10788;47.930;9.766;2023-03-23T03:44:33;9.50;99.90
21261;DHT22;10788;47.930;9.766;2023-03-23T03:47:02;9.40;99.90
21261;DHT22;10788;47.930;9.766;2023-03-23T03:49:27;9.40;99.90
21261;DHT22;10788;47.930;9.766;2023-03-23T03:51:53;9.30;99.90
21261;DHT22;10788;47.930;9.766;2023-03-23T03:54:19;9.40;99.90
21261;DHT22;10788;47.930;9.766;2023-03-23T03:56:44;9.40;99.90
21261;DHT22;10788;47.930;9.766;2023-03-23T03:59:11;9.30;99.90
21261;DHT22;10788;47.930;9.766;2023-03-23T04:01:38;9.40;99.90
21261;DHT22;10788;47.930;9.766;2023-03-23T04:04:05;9.40;99.90
21261;DHT22;10788;47.930;9.766;2023-03-23T04:06:33;9.40;99.90
21261;DHT22;10788;47.930;9.766;2023-03-23T04:09:03;9.30;99.90
21261;DHT22;10788;47.930;9.766;2023-03-23T04:11:31;9.40;99.90
21261;DHT22;10788;47.930;9.766;2023-03-23T04:13:56;9.50;99.90
21261;DHT22;10788;47.930;9.766;2023-03-23T04:16:22;9.60;99.90
21261;DHT22;10788;47.930;9.766;2023-03-23T04:18:48;9.70;99.90
21261;DHT22;10788;47.930;9.766;2023-03-23T04:21:14;9.80;99.90
21261;DHT22;10788;47.930;9.766;2023-03-23T04:23:40;9.90;99.90
21261;DHT22;10788;47.930;9.766;2023-03-23T04:26:06;10.10;99.90
21261;DHT22;10788;47.930;9.766;2023-03-23T04:28:31;10.10;99.90
21261;DHT22;10788;47.930;9.766;2023-03-23T04:30:59;10.30;99.90
21261;DHT22;10788;47.930;9.766;2023-03-23T04:33:26;10.40;99.90
21261;DHT22;10788;47.930;9.766;2023-03-23T04:35:54;10.60;99.90
21261;DHT22;10788;47.930;9.766;2023-03-23T04:38:21;10.60;99.90
21261;DHT22;10788;47.930;9.766;2023-03-23T04:40:49;10.70;99.90
21261;DHT22;10788;47.930;9.766;2023-03-23T04:43:22;10.90;99.90
21261;DHT22;10788;47.930;9.766;2023-03-23T04:45:53;11.00;99.90
21261;DHT22;10788;47.930;9.766;2023-03-23T04:48:26;11.00;99.90
21261;DHT22;10788;47.930;9.766;2023-03-23T04:50:52;11.10;99.90
21261;DHT22;10788;47.930;9.766;2023-03-23T04:53:18;11.10;99.90
21261;DHT22;10788;47.930;9.766;2023-03-23T04:55:45;11.10;99.90
21261;DHT22;10788;47.930;9.766;2023-03-23T04:58:12;11.10;99.90
21261;DHT22;10788;47.930;9.766;2023-03-23T05:00:39;11.10;99.90
21261;DHT22;10788;47.930;9.766;2023-03-23T05:03:06;11.10;99.90
21261;DHT22;10788;47.930;9.766;2023-03-23T05:05:34;11.10;99.90
21261;DHT22;10788;47.930;9.766;2023-03-23T05:08:00;11.00;99.90
21261;DHT22;10788;47.930;9.766;2023-03-23T05:10:25;10.90;99.90
21261;DHT22;10788;47.930;9.766;2023-03-23T05:12:53;11.00;99.90
21261;DHT22;10788;47.930;9.766;2023-03-23T05:15:19;10.90;99.90
21261;DHT22;10788;47.930;9.766;2023-03-23T05:17:45;10.90;99.90
21261;DHT22;10788;47.930;9.766;2023-03-23T05:20:12;10.90;99.90
21261;DHT22;10788;47.930;9.766;2023-03-23T05:22:40;11.00;99.90
21261;DHT22;10788;47.930;9.766;2023-03-23T05:25:08;11.00;99.90
21261;DHT22;10788;47.930;9.766;2023-03-23T05:27:37;11.00;99.90
21261;DHT22;10788;47.930;9.766;2023-03-23T05:30:06;11.00;99.90
21261;DHT22;10788;47.930;9.766;2023-03-23T05:32:32;11.00;99.90
21261;DHT22;10788;47.930;9.766;2023-03-23T05:34:59;11.10;99.90
21261;DHT22;10788;47.930;9.766;2023-03-23T05:37:27;11.00;99.90
21261;DHT22;10788;47.930;9.766;2023-03-23T05:39:58;11.00;99.90
21261;DHT22;10788;47.930;9.766;2023-03-23T05:42:30;11.00;99.90
21261;DHT22;10788;47.930;9.766;2023-03-23T05:44:56;11.00;99.90
21261;DHT22;10788;47.930;9.766;2023-03-23T05:47:21;10.90;99.90
21261;DHT22;10788;47.930;9.766;2023-03-23T05:49:47;10.90;99.90
21261;DHT22;10788;47.930;9.766;2023-03-23T05:52:13;10.90;99.90
21261;DHT22;10788;47.930;9.766;2023-03-23T05:54:38;11.00;99.90
21261;DHT22;10788;47.930;9.766;2023-03-23T05:57:04;11.10;99.90
21261;DHT22;10788;47.930;9.766;2023-03-23T05:59:31;11.10;99.90
21261;DHT22;10788;47.930;9.766;2023-03-23T06:01:56;11.10;99.90
21261;DHT22;10788;47.930;9.766;2023-03-23T06:04:23;11.10;99.90
21261;DHT22;10788;47.930;9.766;2023-03-23T06:06:50;11.10;99.90
21261;DHT22;10788;47.930;9.766;2023-03-23T06:09:17;11.10;99.90
21261;DHT22;10788;47.930;9.766;2023-03-23T06:11:43;11.10;99.90
21261;DHT22;10788;47.930;9.766;2023-03-23T06:14:09;11.00;99.90
21261;DHT22;10788;47.930;9.766;2023-03-23T06:16:34;11.10;99.90
21261;DHT22;10788;47.930;9.766;2023-03-23T06:19:00;11.00;99.90
21261;DHT22;10788;47.930;9.766;2023-03-23T06:21:27;11.10;99.90
21261;DHT22;10788;47.930;9.766;2023-03-23T06:23:53;11.10;99.90
21261;DHT22;10788;47.930;9.766;2023-03-23T06:26:20;11.00;99.90
21261;DHT22;10788;47.930;9.766;2023-03-23T06:28:46;11.10;99.90
21261;DHT22;10788;47.930;9.766;2023-03-23T06:31:12;11.10;99.90
21261;DHT22;10788;47.930;9.766;2023-03-23T06:33:39;11.10;99.90
21261;DHT22;10788;47.930;9.766;2023-03-23T06:36:06;11.20;99.90
21261;DHT22;10788;47.930;9.766;2023-03-23T06:38:32;11.20;99.90
21261;DHT22;10788;47.930;9.766;2023-03-23T06:40:58;11.20;99.90
21261;DHT22;10788;47.930;9.766;2023-03-23T06:43:24;11.20;99.90
21261;DHT22;10788;47.930;9.766;2023-03-23T06:45:50;11.20;99.90
21261;DHT22;10788;47.930;9.766;2023-03-23T06:48:16;11.20;99.90
21261;DHT22;10788;47.930;9.766;2023-03-23T06:50:46;11.20;99.90
21261;DHT22;10788;47.930;9.766;2023-03-23T06:53:12;11.20;99.90
21261;DHT22;10788;47.930;9.766;2023-03-23T06:55:38;11.30;99.90
21261;DHT22;10788;47.930;9.766;2023-03-23T06:58:05;11.40;99.90
21261;DHT22;10788;47.930;9.766;2023-03-23T07:00:32;11.50;99.90
21261;DHT22;10788;47.930;9.766;2023-03-23T07:02:58;11.70;99.90
21261;DHT22;10788;47.930;9.766;2023-03-23T07:05:24;11.60;99.90
21261;DHT22;10788;47.930;9.766;2023-03-23T07:07:50;11.70;99.90
21261;DHT22;10788;47.930;9.766;2023-03-23T07:10:17;11.70;99.90
21261;DHT22;10788;47.930;9.766;2023-03-23T07:12:43;11.70;99.90
21261;DHT22;10788;47.930;9.766;2023-03-23T07:15:09;11.70;99.90
21261;DHT22;10788;47.930;9.766;2023-03-23T07:17:39;11.70;99.90
21261;DHT22;10788;47.930;9.766;2023-03-23T07:20:06;11.80;99.90
21261;DHT22;10788;47.930;9.766;2023-03-23T07:22:33;11.70;99.90
21261;DHT22;10788;47.930;9.766;2023-03-23T07:24:58;11.80;99.90
21261;DHT22;10788;47.930;9.766;2023-03-23T07:27:25;11.80;99.90
21261;DHT22;10788;47.930;9.766;2023-03-23T07:29:50;11.80;99.90
21261;DHT22;10788;47.930;9.766;2023-03-23T07:32:16;11.90;99.90
21261;DHT22;10788;47.930;9.766;2023-03-23T07:34:42;12.00;99.90
21261;DHT22;10788;47.930;9.766;2023-03-23T07:37:08;11.80;99.90
21261;DHT22;10788;47.930;9.766;2023-03-23T07:39:34;11.90;99.90
21261;DHT22;10788;47.930;9.766;2023-03-23T07:42:00;12.10;99.90
21261;DHT22;10788;47.930;9.766;2023-03-23T07:44:26;12.10;99.90
21261;DHT22;10788;47.930;9.766;2023-03-23T07:46:51;12.10;99.90
21261;DHT22;10788;47.930;9.766;2023-03-23T07:49:18;12.10;99.90
21261;DHT22;10788;47.930;9.766;2023-03-23T07:51:44;12.20;99.90
21261;DHT22;10788;47.930;9.766;2023-03-23T07:54:10;12.40;99.90
21261;DHT22;10788;47.930;9.766;2023-03-23T07:56:37;12.40;99.90
21261;DHT22;10788;47.930;9.766;2023-03-23T07:59:05;12.50;99.90
21261;DHT22;10788;47.930;9.766;2023-03-23T08:01:31;12.70;99.90
21261;DHT22;10788;47.930;9.766;2023-03-23T08:03:57;12.60;99.90
21261;DHT22;10788;47.930;9.766;2023-03-23T08:06:24;12.80;99.90
21261;DHT22;10788;47.930;9.766;2023-03-23T08:08:50;12.80;99.90
21261;DHT22;10788;47.930;9.766;2023-03-23T08:11:17;12.90;99.90
21261;DHT22;10788;47.930;9.766;2023-03-23T08:13:43;13.00;99.90
21261;DHT22;10788;47.930;9.766;2023-03-23T08:16:12;13.10;99.90
21261;DHT22;10788;47.930;9.766;2023-03-23T08:18:38;13.20;99.90
21261;DHT22;10788;47.930;9.766;2023-03-23T08:21:05;13.30;99.90
21261;DHT22;10788;47.930;9.766;2023-03-23T08:23:31;13.30;99.90
21261;DHT22;10788;47.930;9.766;2023-03-23T08:25:58;13.30;99.90
21261;DHT22;10788;47.930;9.766;2023-03-23T08:28:24;13.40;99.90
21261;DHT22;10788;47.930;9.766;2023-03-23T08:30:49;13.50;99.90
21261;DHT22;10788;47.930;9.766;2023-03-23T08:33:16;13.60;99.90
21261;DHT22;10788;47.930;9.766;2023-03-23T08:35:41;13.60;99.90
21261;DHT22;10788;47.930;9.766;2023-03-23T08:38:10;13.70;99.90
21261;DHT22;10788;47.930;9.766;2023-03-23T08:40:37;13.80;99.90
21261;DHT22;10788;47.930;9.766;2023-03-23T08:43:03;13.90;99.90
21261;DHT22;10788;47.930;9.766;2023-03-23T08:45:29;14.10;99.90
21261;DHT22;10788;47.930;9.766;2023-03-23T08:47:55;14.10;99.90
21261;DHT22;10788;47.930;9.766;2023-03-23T08:50:24;14.30;99.90
21261;DHT22;10788;47.930;9.766;2023-03-23T08:52:51;14.40;99.90
21261;DHT22;10788;47.930;9.766;2023-03-23T08:55:17;14.40;99.90
21261;DHT22;10788;47.930;9.766;2023-03-23T08:57:44;14.40;99.90
21261;DHT22;10788;47.930;9.766;2023-03-23T09:00:12;14.50;99.90
21261;DHT22;10788;47.930;9.766;2023-03-23T09:02:49;14.60;99.90
21261;DHT22;10788;47.930;9.766;2023-03-23T09:05:16;14.80;99.90
21261;DHT22;10788;47.930;9.766;2023-03-23T09:07:46;14.90;99.90
21261;DHT22;10788;47.930;9.766;2023-03-23T09:10:13;14.90;99.90
21261;DHT22;10788;47.930;9.766;2023-03-23T09:12:40;15.00;99.90
21261;DHT22;10788;47.930;9.766;2023-03-23T09:15:07;15.10;99.90
21261;DHT22;10788;47.930;9.766;2023-03-23T09:17:38;15.00;99.90
21261;DHT22;10788;47.930;9.766;2023-03-23T09:20:06;15.00;99.90
21261;DHT22;10788;47.930;9.766;2023-03-23T09:22:45;15.00;99.90
21261;DHT22;10788;47.930;9.766;2023-03-23T09:25:13;15.00;99.90
21261;DHT22;10788;47.930;9.766;2023-03-23T09:27:41;15.00;99.90
21261;DHT22;10788;47.930;9.766;2023-03-23T09:30:10;15.00;99.90
21261;DHT22;10788;47.930;9.766;2023-03-23T09:32:37;15.10;99.90
21261;DHT22;10788;47.930;9.766;2023-03-23T09:35:06;15.00;99.90
21261;DHT22;10788;47.930;9.766;2023-03-23T09:37:33;15.10;99.90
21261;DHT22;10788;47.930;9.766;2023-03-23T09:40:02;15.10;99.90
21261;DHT22;10788;47.930;9.766;2023-03-23T09:50:28;15.10;99.90
21261;DHT22;10788;47.930;9.766;2023-03-23T09:53:08;15.10;99.90
21261;DHT22;10788;47.930;9.766;2023-03-23T09:55:37;15.10;99.90
21261;DHT22;10788;47.930;9.766;2023-03-23T09:58:16;15.20;99.90
21261;DHT22;10788;47.930;9.766;2023-03-23T10:00:55;15.30;99.90
21261;DHT22;10788;47.930;9.766;2023-03-23T10:03:27;15.30;99.90
21261;DHT22;10788;47.930;9.766;2023-03-23T10:05:55;15.30;99.90
21261;DHT22;10788;47.930;9.766;2023-03-23T10:08:23;15.40;99.90
21261;DHT22;10788;47.930;9.766;2023-03-23T10:14:07;15.30;99.90
21261;DHT22;10788;47.930;9.766;2023-03-23T10:16:42;15.40;99.90
21261;DHT22;10788;47.930;9.766;2023-03-23T10:19:27;15.40;99.90
21261;DHT22;10788;47.930;9.766;2023-03-23T10:22:07;15.40;99.90
21261;DHT22;10788;47.930;9.766;2023-03-23T10:24:54;15.40;99.90
21261;DHT22;10788;47.930;9.766;2023-03-23T10:30:21;15.30;99.90
21261;DHT22;10788;47.930;9.766;2023-03-23T10:32:54;15.30;99.90
21261;DHT22;10788;47.930;9.766;2023-03-23T10:35:34;15.30;99.90
21261;DHT22;10788;47.930;9.766;2023-03-23T10:38:14;15.40;99.90
21261;DHT22;10788;47.930;9.766;2023-03-23T10:41:14;15.50;99.90
21261;DHT22;10788;47.930;9.766;2023-03-23T10:43:41;15.50;99.90
21261;DHT22;10788;47.930;9.766;2023-03-23T10:48:41;15.60;99.90
21261;DHT22;10788;47.930;9.766;2023-03-23T10:51:11;15.70;99.90
21261;DHT22;10788;47.930;9.766;2023-03-23T10:53:43;15.70;99.90
21261;DHT22;10788;47.930;9.766;2023-03-23T10:56:26;15.80;99.90
21261;DHT22;10788;47.930;9.766;2023-03-23T10:58:53;15.90;99.90
21261;DHT22;10788;47.930;9.766;2023-03-23T11:01:30;15.90;99.90
21261;DHT22;10788;47.930;9.766;2023-03-23T11:03:56;16.00;99.90
21261;DHT22;10788;47.930;9.766;2023-03-23T11:06:30;16.00;99.90
21261;DHT22;10788;47.930;9.766;2023-03-23T11:09:01;16.00;99.90
21261;DHT22;10788;47.930;9.766;2023-03-23T11:11:40;16.00;99.90
21261;DHT22;10788;47.930;9.766;2023-03-23T11:14:17;15.90;99.90
21261;DHT22;10788;47.930;9.766;2023-03-23T11:16:52;15.90;99.90
21261;DHT22;10788;47.930;9.766;2023-03-23T11:19:25;15.90;99.90
21261;DHT22;10788;47.930;9.766;2023-03-23T11:22:07;15.80;99.90
21261;DHT22;10788;47.930;9.766;2023-03-23T11:24:44;15.70;99.90
21261;DHT22;10788;47.930;9.766;2023-03-23T11:27:11;15.80;99.90
21261;DHT22;10788;47.930;9.766;2023-03-23T11:30:01;15.80;99.90
21261;DHT22;10788;47.930;9.766;2023-03-23T11:32:34;15.80;99.90
21261;DHT22;10788;47.930;9.766;2023-03-23T11:35:04;15.90;99.90
21261;DHT22;10788;47.930;9.766;2023-03-23T11:37:42;15.80;99.90
21261;DHT22;10788;47.930;9.766;2023-03-23T11:48:07;15.80;99.90
21261;DHT22;10788;47.930;9.766;2023-03-23T11:55:57;15.70;99.90
21261;DHT22;10788;47.930;9.766;2023-03-23T11:58:23;15.70;99.90
21261;DHT22;10788;47.930;9.766;2023-03-23T12:00:57;15.70;99.90
21261;DHT22;10788;47.930;9.766;2023-03-23T12:07:21;15.70;99.90
21261;DHT22;10788;47.930;9.766;2023-03-23T12:20:08;15.70;99.90
21261;DHT22;10788;47.930;9.766;2023-03-23T12:44:52;15.70;99.90
21261;DHT22;10788;47.930;9.766;2023-03-23T12:53:03;15.90;99.90
21261;DHT22;10788;47.930;9.766;2023-03-23T12:58:25;16.10;99.90
21261;DHT22;10788;47.930;9.766;2023-03-23T13:01:14;16.20;99.90
21261;DHT22;10788;47.930;9.766;2023-03-23T13:06:37;16.20;99.90
21261;DHT22;10788;47.930;9.766;2023-03-23T13:12:09;16.30;99.90
21261;DHT22;10788;47.930;9.766;2023-03-23T13:17:16;16.30;99.90
21261;DHT22;10788;47.930;9.766;2023-03-23T13:22:35;16.20;99.90
21261;DHT22;10788;47.930;9.766;2023-03-23T13:25:08;16.20;99.90
21261;DHT22;10788;47.930;9.766;2023-03-23T13:27:37;16.10;99.90
21261;DHT22;10788;47.930;9.766;2023-03-23T13:30:03;16.00;99.90
21261;DHT22;10788;47.930;9.766;2023-03-23T13:32:36;16.00;99.90
21261;DHT22;10788;47.930;9.766;2023-03-23T13:35:05;16.00;99.90
21261;DHT22;10788;47.930;9.766;2023-03-23T13:37:32;16.00;99.90
21261;DHT22;10788;47.930;9.766;2023-03-23T13:40:24;16.00;99.90
21261;DHT22;10788;47.930;9.766;2023-03-23T13:42:57;16.10;99.90
21261;DHT22;10788;47.930;9.766;2023-03-23T13:45:45;16.20;99.90
21261;DHT22;10788;47.930;9.766;2023-03-23T13:50:53;16.20;99.90
21261;DHT22;10788;47.930;9.766;2023-03-23T13:56:07;16.20;99.90
21261;DHT22;10788;47.930;9.766;2023-03-23T13:58:50;16.10;99.90
21261;DHT22;10788;47.930;9.766;2023-03-23T14:01:31;16.20;99.90
21261;DHT22;10788;47.930;9.766;2023-03-23T14:03:59;16.10;99.90
21261;DHT22;10788;47.930;9.766;2023-03-23T14:06:27;16.10;99.90
21261;DHT22;10788;47.930;9.766;2023-03-23T14:09:10;16.10;99.90
21261;DHT22;10788;47.930;9.766;2023-03-23T14:11:55;16.20;99.90
21261;DHT22;10788;47.930;9.766;2023-03-23T14:14:31;16.10;99.90
21261;DHT22;10788;47.930;9.766;2023-03-23T14:17:13;16.20;99.90
21261;DHT22;10788;47.930;9.766;2023-03-23T14:19:40;16.20;99.90
21261;DHT22;10788;47.930;9.766;2023-03-23T14:22:28;16.20;99.90
21261;DHT22;10788;47.930;9.766;2023-03-23T14:25:15;16.20;99.90
21261;DHT22;10788;47.930;9.766;2023-03-23T14:27:41;16.30;99.90
21261;DHT22;10788;47.930;9.766;2023-03-23T14:30:13;16.30;99.90
21261;DHT22;10788;47.930;9.766;2023-03-23T14:32:39;16.20;99.90
21261;DHT22;10788;47.930;9.766;2023-03-23T14:35:29;16.20;99.90
21261;DHT22;10788;47.930;9.766;2023-03-23T14:37:57;16.10;99.90
21261;DHT22;10788;47.930;9.766;2023-03-23T14:40:26;15.90;99.90
21261;DHT22;10788;47.930;9.766;2023-03-23T14:42:52;15.80;99.90
21261;DHT22;10788;47.930;9.766;2023-03-23T14:45:20;15.70;99.90
21261;DHT22;10788;47.930;9.766;2023-03-23T14:47:50;15.60;99.90
21261;DHT22;10788;47.930;9.766;2023-03-23T14:50:38;15.50;99.90
21261;DHT22;10788;47.930;9.766;2023-03-23T14:53:29;15.50;99.90
21261;DHT22;10788;47.930;9.766;2023-03-23T14:56:00;15.30;99.90
21261;DHT22;10788;47.930;9.766;2023-03-23T14:58:28;15.30;99.90
21261;DHT22;10788;47.930;9.766;2023-03-23T15:03:35;15.20;99.90
21261;DHT22;10788;47.930;9.766;2023-03-23T15:06:05;15.20;99.90
21261;DHT22;10788;47.930;9.766;2023-03-23T15:08:33;15.10;99.90
21261;DHT22;10788;47.930;9.766;2023-03-23T15:11:04;15.10;99.90
21261;DHT22;10788;47.930;9.766;2023-03-23T15:13:31;15.10;99.90
21261;DHT22;10788;47.930;9.766;2023-03-23T15:16:17;15.10;99.90
21261;DHT22;10788;47.930;9.766;2023-03-23T15:18:50;15.10;99.90
21261;DHT22;10788;47.930;9.766;2023-03-23T15:24:36;14.90;99.90
21261;DHT22;10788;47.930;9.766;2023-03-23T15:27:17;14.80;99.90
21261;DHT22;10788;47.930;9.766;2023-03-23T15:29:55;14.80;99.90
21261;DHT22;10788;47.930;9.766;2023-03-23T15:32:27;14.80;99.90
21261;DHT22;10788;47.930;9.766;2023-03-23T15:34:55;14.70;99.90
21261;DHT22;10788;47.930;9.766;2023-03-23T15:37:29;14.70;99.90
21261;DHT22;10788;47.930;9.766;2023-03-23T15:39:57;14.70;99.90
21261;DHT22;10788;47.930;9.766;2023-03-23T15:42:32;14.70;99.90
21261;DHT22;10788;47.930;9.766;2023-03-23T15:47:46;14.70;99.90
21261;DHT22;10788;47.930;9.766;2023-03-23T15:50:41;14.70;99.90
21261;DHT22;10788;47.930;9.766;2023-03-23T15:53:21;14.70;99.90
21261;DHT22;10788;47.930;9.766;2023-03-23T15:55:48;14.60;99.90
21261;DHT22;10788;47.930;9.766;2023-03-23T15:58:14;14.70;99.90
21261;DHT22;10788;47.930;9.766;2023-03-23T16:00:40;14.70;99.90
21261;DHT22;10788;47.930;9.766;2023-03-23T16:03:12;14.60;99.90
21261;DHT22;10788;47.930;9.766;2023-03-23T16:05:39;14.60;99.90
21261;DHT22;10788;47.930;9.766;2023-03-23T16:08:05;14.60;99.90
21261;DHT22;10788;47.930;9.766;2023-03-23T16:10:30;14.50;99.90
21261;DHT22;10788;47.930;9.766;2023-03-23T16:12:56;14.50;99.90
21261;DHT22;10788;47.930;9.766;2023-03-23T16:15:21;14.40;99.90
21261;DHT22;10788;47.930;9.766;2023-03-23T16:17:47;14.30;99.90
21261;DHT22;10788;47.930;9.766;2023-03-23T16:20:19;14.50;99.90
21261;DHT22;10788;47.930;9.766;2023-03-23T16:22:46;14.40;99.90
21261;DHT22;10788;47.930;9.766;2023-03-23T16:25:12;14.30;99.90
21261;DHT22;10788;47.930;9.766;2023-03-23T16:27:39;14.30;99.90
21261;DHT22;10788;47.930;9.766;2023-03-23T16:30:17;14.30;99.90
21261;DHT22;10788;47.930;9.766;2023-03-23T16:32:43;14.20;99.90
21261;DHT22;10788;47.930;9.766;2023-03-23T16:35:09;14.20;99.90
21261;DHT22;10788;47.930;9.766;2023-03-23T16:37:35;14.20;99.90
21261;DHT22;10788;47.930;9.766;2023-03-23T16:40:02;14.10;99.90
21261;DHT22;10788;47.930;9.766;2023-03-23T16:42:28;14.10;99.90
21261;DHT22;10788;47.930;9.766;2023-03-23T16:44:54;14.00;99.90
21261;DHT22;10788;47.930;9.766;2023-03-23T16:47:20;14.00;99.90
21261;DHT22;10788;47.930;9.766;2023-03-23T16:49:50;14.00;99.90
21261;DHT22;10788;47.930;9.766;2023-03-23T16:52:17;14.10;99.90
21261;DHT22;10788;47.930;9.766;2023-03-23T16:54:42;13.90;99.90
21261;DHT22;10788;47.930;9.766;2023-03-23T16:57:08;13.90;99.90
21261;DHT22;10788;47.930;9.766;2023-03-23T16:59:34;13.90;99.90
21261;DHT22;10788;47.930;9.766;2023-03-23T17:02:00;13.90;99.90
21261;DHT22;10788;47.930;9.766;2023-03-23T17:04:32;14.00;99.90
21261;DHT22;10788;47.930;9.766;2023-03-23T17:06:58;13.90;99.90
21261;DHT22;10788;47.930;9.766;2023-03-23T17:09:25;14.00;99.90
21261;DHT22;10788;47.930;9.766;2023-03-23T17:11:51;13.90;99.90
21261;DHT22;10788;47.930;9.766;2023-03-23T17:14:18;14.00;99.90
21261;DHT22;10788;47.930;9.766;2023-03-23T17:16:43;13.90;99.90
21261;DHT22;10788;47.930;9.766;2023-03-23T17:19:09;13.90;99.90
21261;DHT22;10788;47.930;9.766;2023-03-23T17:21:35;13.90;99.90
21261;DHT22;10788;47.930;9.766;2023-03-23T17:24:01;13.80;99.90
21261;DHT22;10788;47.930;9.766;2023-03-23T17:26:26;13.90;99.90
21261;DHT22;10788;47.930;9.766;2023-03-23T17:28:52;13.80;99.90
21261;DHT22;10788;47.930;9.766;2023-03-23T17:31:18;13.70;99.90
21261;DHT22;10788;47.930;9.766;2023-03-23T17:33:43;13.70;99.90
21261;DHT22;10788;47.930;9.766;2023-03-23T17:36:09;13.80;99.90
21261;DHT22;10788;47.930;9.766;2023-03-23T17:38:34;13.70;99.90
21261;DHT22;10788;47.930;9.766;2023-03-23T17:41:01;13.60;99.90
21261;DHT22;10788;47.930;9.766;2023-03-23T17:43:28;13.70;99.90
21261;DHT22;10788;47.930;9.766;2023-03-23T17:45:54;13.70;99.90
21261;DHT22;10788;47.930;9.766;2023-03-23T17:48:20;13.60;99.90
21261;DHT22;10788;47.930;9.766;2023-03-23T17:50:47;13.60;99.90
21261;DHT22;10788;47.930;9.766;2023-03-23T17:53:12;13.60;99.90